sensor_id;sensor_type;location;lat;lon;timestamp;P1;durP1;ratioP1;P2;durP2;ratioP2
55603;SDS011;41468;48.838;9.330;2023-07-20T00:00:13;5.07;;;1.55;;
55603;SDS011;41468;48.838;9.330;2023-07-20T00:02:40;1.92;;;1.80;;
55603;SDS011;41468;48.838;9.330;2023-07-20T00:05:07;2.65;;;1.90;;
55603;SDS011;41468;48.838;9.330;2023-07-20T00:07:34;5.45;;;2.20;;
55603;SDS011;41468;48.838;9.330;2023-07-20T00:10:01;3.05;;;1.75;;
55603;SDS011;41468;48.838;9.330;2023-07-20T00:12:28;2.30;;;1.80;;
55603;SDS011;41468;48.838;9.330;2023-07-20T00:14:54;2.88;;;1.63;;
55603;SDS011;41468;48.838;9.330;2023-07-20T00:17:21;1.70;;;1.60;;
55603;SDS011;41468;48.838;9.330;2023-07-20T00:19:48;1.83;;;1.73;;
55603;SDS011;41468;48.838;9.330;2023-07-20T00:22:15;3.03;;;1.63;;
55603;SDS011;41468;48.838;9.330;2023-07-20T00:24:42;2.20;;;1.58;;
55603;SDS011;41468;48.838;9.330;2023-07-20T00:27:09;3.53;;;1.90;;
55603;SDS011;41468;48.838;9.330;2023-07-20T00:29:35;2.03;;;1.92;;
55603;SDS011;41468;48.838;9.330;2023-07-20T00:32:03;1.90;;;1.80;;
55603;SDS011;41468;48.838;9.330;2023-07-20T00:34:31;2.80;;;2.22;;
55603;SDS011;41468;48.838;9.330;2023-07-20T00:36:58;2.63;;;1.90;;
55603;SDS011;41468;48.838;9.330;2023-07-20T00:39:25;2.92;;;1.77;;
55603;SDS011;41468;48.838;9.330;2023-07-20T00:41:52;2.40;;;1.80;;
55603;SDS011;41468;48.838;9.330;2023-07-20T00:44:19;2.53;;;1.98;;
55603;SDS011;41468;48.838;9.330;2023-07-20T00:46:46;3.85;;;1.90;;
55603;SDS011;41468;48.838;9.330;2023-07-20T00:49:13;1.75;;;1.65;;
55603;SDS011;41468;48.838;9.330;2023-07-20T00:51:41;6.65;;;2.08;;
55603;SDS011;41468;48.838;9.330;2023-07-20T00:54:08;1.83;;;1.73;;
55603;SDS011;41468;48.838;9.330;2023-07-20T00:56:36;2.60;;;1.80;;
55603;SDS011;41468;48.838;9.330;2023-07-20T00:59:03;2.17;;;1.80;;
55603;SDS011;41468;48.838;9.330;2023-07-20T01:01:31;2.78;;;1.80;;
55603;SDS011;41468;48.838;9.330;2023-07-20T01:03:58;2.80;;;1.60;;
55603;SDS011;41468;48.838;9.330;2023-07-20T01:17:06;7.53;;;1.80;;
55603;SDS011;41468;48.838;9.330;2023-07-20T01:19:39;1.67;;;1.50;;
55603;SDS011;41468;48.838;9.330;2023-07-20T01:30:56;2.28;;;1.67;;
55603;SDS011;41468;48.838;9.330;2023-07-20T01:33:40;1.70;;;1.60;;
55603;SDS011;41468;48.838;9.330;2023-07-20T01:36:16;1.80;;;1.70;;
55603;SDS011;41468;48.838;9.330;2023-07-20T01:38:45;2.72;;;1.88;;
55603;SDS011;41468;48.838;9.330;2023-07-20T01:41:13;2.90;;;1.70;;
55603;SDS011;41468;48.838;9.330;2023-07-20T01:43:42;1.50;;;1.40;;
55603;SDS011;41468;48.838;9.330;2023-07-20T01:46:09;1.80;;;1.58;;
55603;SDS011;41468;48.838;9.330;2023-07-20T01:48:36;3.20;;;1.60;;
55603;SDS011;41468;48.838;9.330;2023-07-20T01:51:03;4.60;;;1.85;;
55603;SDS011;41468;48.838;9.330;2023-07-20T01:53:30;1.60;;;1.50;;
55603;SDS011;41468;48.838;9.330;2023-07-20T01:55:57;2.08;;;1.70;;
55603;SDS011;41468;48.838;9.330;2023-07-20T01:58:24;3.20;;;1.75;;
55603;SDS011;41468;48.838;9.330;2023-07-20T02:00:51;1.60;;;1.50;;
55603;SDS011;41468;48.838;9.330;2023-07-20T02:03:18;2.38;;;1.50;;
55603;SDS011;41468;48.838;9.330;2023-07-20T02:05:45;3.25;;;1.73;;
55603;SDS011;41468;48.838;9.330;2023-07-20T02:08:11;1.92;;;1.50;;
55603;SDS011;41468;48.838;9.330;2023-07-20T02:10:38;1.80;;;1.70;;
55603;SDS011;41468;48.838;9.330;2023-07-20T02:13:05;3.80;;;1.77;;
55603;SDS011;41468;48.838;9.330;2023-07-20T02:15:32;3.08;;;1.63;;
55603;SDS011;41468;48.838;9.330;2023-07-20T02:17:59;5.95;;;1.52;;
55603;SDS011;41468;48.838;9.330;2023-07-20T02:20:26;2.45;;;1.63;;
55603;SDS011;41468;48.838;9.330;2023-07-20T02:22:54;1.88;;;1.63;;
55603;SDS011;41468;48.838;9.330;2023-07-20T02:25:21;5.85;;;1.80;;
55603;SDS011;41468;48.838;9.330;2023-07-20T02:27:48;1.90;;;1.40;;
55603;SDS011;41468;48.838;9.330;2023-07-20T02:30:15;1.52;;;1.42;;
55603;SDS011;41468;48.838;9.330;2023-07-20T02:32:42;3.15;;;1.48;;
55603;SDS011;41468;48.838;9.330;2023-07-20T02:35:12;2.50;;;1.80;;
55603;SDS011;41468;48.838;9.330;2023-07-20T02:37:39;2.00;;;1.80;;
55603;SDS011;41468;48.838;9.330;2023-07-20T02:40:06;2.72;;;1.70;;
55603;SDS011;41468;48.838;9.330;2023-07-20T02:42:34;4.90;;;1.90;;
55603;SDS011;41468;48.838;9.330;2023-07-20T02:45:02;2.50;;;1.50;;
55603;SDS011;41468;48.838;9.330;2023-07-20T02:47:29;3.33;;;1.65;;
55603;SDS011;41468;48.838;9.330;2023-07-20T02:49:56;5.72;;;1.83;;
55603;SDS011;41468;48.838;9.330;2023-07-20T02:52:23;2.85;;;1.65;;
55603;SDS011;41468;48.838;9.330;2023-07-20T02:54:50;1.85;;;1.70;;
55603;SDS011;41468;48.838;9.330;2023-07-20T02:57:18;2.17;;;1.90;;
55603;SDS011;41468;48.838;9.330;2023-07-20T02:59:44;1.95;;;1.85;;
55603;SDS011;41468;48.838;9.330;2023-07-20T03:02:11;8.85;;;2.30;;
55603;SDS011;41468;48.838;9.330;2023-07-20T03:04:38;4.70;;;1.80;;
55603;SDS011;41468;48.838;9.330;2023-07-20T03:07:05;3.20;;;1.73;;
55603;SDS011;41468;48.838;9.330;2023-07-20T03:09:32;2.80;;;2.08;;
55603;SDS011;41468;48.838;9.330;2023-07-20T03:11:59;2.80;;;1.52;;
55603;SDS011;41468;48.838;9.330;2023-07-20T03:14:26;3.22;;;1.70;;
55603;SDS011;41468;48.838;9.330;2023-07-20T03:16:52;4.28;;;1.98;;
55603;SDS011;41468;48.838;9.330;2023-07-20T03:19:19;2.10;;;1.90;;
55603;SDS011;41468;48.838;9.330;2023-07-20T03:21:46;1.90;;;1.80;;
55603;SDS011;41468;48.838;9.330;2023-07-20T03:24:13;1.80;;;1.70;;
55603;SDS011;41468;48.838;9.330;2023-07-20T03:26:40;2.40;;;1.92;;
55603;SDS011;41468;48.838;9.330;2023-07-20T03:29:07;6.22;;;4.20;;
55603;SDS011;41468;48.838;9.330;2023-07-20T03:31:34;8.57;;;5.53;;
55603;SDS011;41468;48.838;9.330;2023-07-20T03:34:02;7.80;;;4.28;;
55603;SDS011;41468;48.838;9.330;2023-07-20T03:36:28;2.70;;;2.22;;
55603;SDS011;41468;48.838;9.330;2023-07-20T03:38:55;1.98;;;1.85;;
55603;SDS011;41468;48.838;9.330;2023-07-20T03:41:22;5.40;;;2.05;;
55603;SDS011;41468;48.838;9.330;2023-07-20T03:43:49;3.00;;;1.92;;
55603;SDS011;41468;48.838;9.330;2023-07-20T03:46:16;1.95;;;1.80;;
55603;SDS011;41468;48.838;9.330;2023-07-20T03:48:43;2.58;;;2.05;;
55603;SDS011;41468;48.838;9.330;2023-07-20T03:51:10;2.88;;;1.98;;
55603;SDS011;41468;48.838;9.330;2023-07-20T03:53:37;3.00;;;1.80;;
55603;SDS011;41468;48.838;9.330;2023-07-20T03:56:08;2.00;;;1.90;;
55603;SDS011;41468;48.838;9.330;2023-07-20T03:58:35;2.00;;;1.90;;
55603;SDS011;41468;48.838;9.330;2023-07-20T04:01:03;2.45;;;1.73;;
55603;SDS011;41468;48.838;9.330;2023-07-20T04:03:30;1.83;;;1.60;;
55603;SDS011;41468;48.838;9.330;2023-07-20T04:05:57;1.98;;;1.85;;
55603;SDS011;41468;48.838;9.330;2023-07-20T04:08:24;1.80;;;1.58;;
55603;SDS011;41468;48.838;9.330;2023-07-20T04:10:51;3.22;;;1.70;;
55603;SDS011;41468;48.838;9.330;2023-07-20T04:13:18;2.95;;;2.08;;
55603;SDS011;41468;48.838;9.330;2023-07-20T04:15:45;2.33;;;2.00;;
55603;SDS011;41468;48.838;9.330;2023-07-20T04:18:12;3.47;;;1.90;;
55603;SDS011;41468;48.838;9.330;2023-07-20T04:20:39;8.43;;;2.30;;
55603;SDS011;41468;48.838;9.330;2023-07-20T04:23:11;2.25;;;1.80;;
55603;SDS011;41468;48.838;9.330;2023-07-20T04:25:41;2.67;;;1.95;;
55603;SDS011;41468;48.838;9.330;2023-07-20T04:28:08;2.25;;;2.03;;
55603;SDS011;41468;48.838;9.330;2023-07-20T04:30:36;2.72;;;1.98;;
55603;SDS011;41468;48.838;9.330;2023-07-20T04:33:05;5.30;;;2.30;;
55603;SDS011;41468;48.838;9.330;2023-07-20T04:38:19;2.20;;;1.95;;
55603;SDS011;41468;48.838;9.330;2023-07-20T04:40:47;5.03;;;1.80;;
55603;SDS011;41468;48.838;9.330;2023-07-20T04:43:16;2.72;;;2.35;;
55603;SDS011;41468;48.838;9.330;2023-07-20T04:45:50;2.28;;;2.08;;
55603;SDS011;41468;48.838;9.330;2023-07-20T04:48:17;2.40;;;2.10;;
55603;SDS011;41468;48.838;9.330;2023-07-20T04:50:45;2.13;;;1.83;;
55603;SDS011;41468;48.838;9.330;2023-07-20T04:53:12;6.95;;;2.33;;
55603;SDS011;41468;48.838;9.330;2023-07-20T04:55:39;3.80;;;2.22;;
55603;SDS011;41468;48.838;9.330;2023-07-20T04:58:07;2.63;;;2.17;;
55603;SDS011;41468;48.838;9.330;2023-07-20T05:00:34;2.53;;;1.98;;
55603;SDS011;41468;48.838;9.330;2023-07-20T05:03:01;1.95;;;1.70;;
55603;SDS011;41468;48.838;9.330;2023-07-20T05:05:29;2.60;;;2.10;;
55603;SDS011;41468;48.838;9.330;2023-07-20T05:07:55;3.03;;;1.98;;
55603;SDS011;41468;48.838;9.330;2023-07-20T05:10:23;2.05;;;1.70;;
55603;SDS011;41468;48.838;9.330;2023-07-20T05:12:54;4.15;;;1.73;;
55603;SDS011;41468;48.838;9.330;2023-07-20T05:15:21;2.88;;;1.92;;
55603;SDS011;41468;48.838;9.330;2023-07-20T05:17:48;3.20;;;1.95;;
55603;SDS011;41468;48.838;9.330;2023-07-20T05:20:15;3.67;;;2.05;;
55603;SDS011;41468;48.838;9.330;2023-07-20T05:22:42;1.90;;;1.77;;
55603;SDS011;41468;48.838;9.330;2023-07-20T05:25:10;2.75;;;1.80;;
55603;SDS011;41468;48.838;9.330;2023-07-20T05:27:38;4.10;;;2.40;;
55603;SDS011;41468;48.838;9.330;2023-07-20T05:30:06;2.00;;;1.83;;
55603;SDS011;41468;48.838;9.330;2023-07-20T05:32:36;2.28;;;1.88;;
55603;SDS011;41468;48.838;9.330;2023-07-20T05:35:03;2.65;;;1.98;;
55603;SDS011;41468;48.838;9.330;2023-07-20T05:37:30;2.58;;;1.92;;
55603;SDS011;41468;48.838;9.330;2023-07-20T05:39:57;3.60;;;2.20;;
55603;SDS011;41468;48.838;9.330;2023-07-20T05:42:24;4.07;;;1.80;;
55603;SDS011;41468;48.838;9.330;2023-07-20T05:44:50;2.08;;;1.88;;
55603;SDS011;41468;48.838;9.330;2023-07-20T05:47:19;2.10;;;1.90;;
55603;SDS011;41468;48.838;9.330;2023-07-20T05:49:46;4.70;;;2.00;;
55603;SDS011;41468;48.838;9.330;2023-07-20T05:52:13;1.80;;;1.70;;
55603;SDS011;41468;48.838;9.330;2023-07-20T05:54:40;2.13;;;2.00;;
55603;SDS011;41468;48.838;9.330;2023-07-20T05:57:07;6.97;;;2.13;;
55603;SDS011;41468;48.838;9.330;2023-07-20T05:59:34;2.80;;;2.03;;
55603;SDS011;41468;48.838;9.330;2023-07-20T06:02:01;2.08;;;1.88;;
55603;SDS011;41468;48.838;9.330;2023-07-20T06:04:35;3.25;;;1.83;;
55603;SDS011;41468;48.838;9.330;2023-07-20T06:07:02;2.70;;;1.80;;
55603;SDS011;41468;48.838;9.330;2023-07-20T06:09:29;2.05;;;1.73;;
55603;SDS011;41468;48.838;9.330;2023-07-20T06:11:56;3.00;;;2.10;;
55603;SDS011;41468;48.838;9.330;2023-07-20T06:14:23;6.90;;;1.88;;
55603;SDS011;41468;48.838;9.330;2023-07-20T06:16:49;2.40;;;1.85;;
55603;SDS011;41468;48.838;9.330;2023-07-20T06:19:16;2.53;;;1.95;;
55603;SDS011;41468;48.838;9.330;2023-07-20T06:21:44;3.35;;;2.10;;
55603;SDS011;41468;48.838;9.330;2023-07-20T06:24:11;6.45;;;2.28;;
55603;SDS011;41468;48.838;9.330;2023-07-20T06:26:37;4.32;;;1.83;;
55603;SDS011;41468;48.838;9.330;2023-07-20T06:29:05;2.55;;;1.88;;
55603;SDS011;41468;48.838;9.330;2023-07-20T06:31:35;2.35;;;1.98;;
55603;SDS011;41468;48.838;9.330;2023-07-20T06:34:03;2.38;;;2.00;;
55603;SDS011;41468;48.838;9.330;2023-07-20T06:36:30;6.68;;;2.10;;
55603;SDS011;41468;48.838;9.330;2023-07-20T06:38:57;1.88;;;1.70;;
55603;SDS011;41468;48.838;9.330;2023-07-20T06:41:29;6.82;;;2.25;;
55603;SDS011;41468;48.838;9.330;2023-07-20T06:43:59;1.92;;;1.80;;
55603;SDS011;41468;48.838;9.330;2023-07-20T06:46:26;5.15;;;2.10;;
55603;SDS011;41468;48.838;9.330;2023-07-20T06:48:53;4.40;;;1.63;;
55603;SDS011;41468;48.838;9.330;2023-07-20T06:51:24;1.60;;;1.50;;
55603;SDS011;41468;48.838;9.330;2023-07-20T06:53:51;2.83;;;1.60;;
55603;SDS011;41468;48.838;9.330;2023-07-20T06:56:18;3.60;;;1.88;;
55603;SDS011;41468;48.838;9.330;2023-07-20T06:58:49;2.00;;;1.65;;
55603;SDS011;41468;48.838;9.330;2023-07-20T07:01:16;6.05;;;1.63;;
55603;SDS011;41468;48.838;9.330;2023-07-20T07:03:43;2.10;;;1.70;;
55603;SDS011;41468;48.838;9.330;2023-07-20T07:06:15;2.50;;;1.70;;
55603;SDS011;41468;48.838;9.330;2023-07-20T07:08:42;2.47;;;1.77;;
55603;SDS011;41468;48.838;9.330;2023-07-20T07:11:11;2.78;;;1.83;;
55603;SDS011;41468;48.838;9.330;2023-07-20T07:13:38;2.88;;;1.83;;
55603;SDS011;41468;48.838;9.330;2023-07-20T07:16:04;1.83;;;1.67;;
55603;SDS011;41468;48.838;9.330;2023-07-20T07:18:35;2.88;;;1.52;;
55603;SDS011;41468;48.838;9.330;2023-07-20T07:21:02;3.40;;;1.83;;
55603;SDS011;41468;48.838;9.330;2023-07-20T07:23:29;3.80;;;1.60;;
55603;SDS011;41468;48.838;9.330;2023-07-20T07:25:55;9.80;;;2.10;;
55603;SDS011;41468;48.838;9.330;2023-07-20T07:28:28;2.05;;;1.90;;
55603;SDS011;41468;48.838;9.330;2023-07-20T07:30:55;2.15;;;1.50;;
55603;SDS011;41468;48.838;9.330;2023-07-20T07:33:23;2.53;;;1.67;;
55603;SDS011;41468;48.838;9.330;2023-07-20T07:35:50;3.72;;;1.75;;
55603;SDS011;41468;48.838;9.330;2023-07-20T07:38:19;3.10;;;2.08;;
55603;SDS011;41468;48.838;9.330;2023-07-20T07:40:49;2.13;;;1.73;;
55603;SDS011;41468;48.838;9.330;2023-07-20T07:43:16;5.13;;;1.52;;
55603;SDS011;41468;48.838;9.330;2023-07-20T07:45:43;3.33;;;1.70;;
55603;SDS011;41468;48.838;9.330;2023-07-20T07:48:10;1.60;;;1.50;;
55603;SDS011;41468;48.838;9.330;2023-07-20T07:50:39;2.90;;;1.88;;
55603;SDS011;41468;48.838;9.330;2023-07-20T07:53:07;3.72;;;1.88;;
55603;SDS011;41468;48.838;9.330;2023-07-20T07:55:35;3.92;;;2.00;;
55603;SDS011;41468;48.838;9.330;2023-07-20T07:58:02;1.80;;;1.52;;
55603;SDS011;41468;48.838;9.330;2023-07-20T08:00:29;3.35;;;1.63;;
55603;SDS011;41468;48.838;9.330;2023-07-20T08:02:56;3.55;;;1.80;;
55603;SDS011;41468;48.838;9.330;2023-07-20T08:05:23;2.00;;;1.80;;
55603;SDS011;41468;48.838;9.330;2023-07-20T08:07:49;2.17;;;1.35;;
55603;SDS011;41468;48.838;9.330;2023-07-20T08:10:16;1.50;;;1.40;;
55603;SDS011;41468;48.838;9.330;2023-07-20T08:12:43;3.67;;;1.50;;
55603;SDS011;41468;48.838;9.330;2023-07-20T08:15:13;6.47;;;1.83;;
55603;SDS011;41468;48.838;9.330;2023-07-20T08:17:52;1.80;;;1.67;;
55603;SDS011;41468;48.838;9.330;2023-07-20T08:20:23;1.83;;;1.70;;
55603;SDS011;41468;48.838;9.330;2023-07-20T08:22:54;2.15;;;1.58;;
55603;SDS011;41468;48.838;9.330;2023-07-20T08:25:21;3.80;;;1.75;;
55603;SDS011;41468;48.838;9.330;2023-07-20T08:27:48;3.03;;;1.63;;
55603;SDS011;41468;48.838;9.330;2023-07-20T08:30:15;1.70;;;1.60;;
55603;SDS011;41468;48.838;9.330;2023-07-20T08:32:42;2.22;;;1.90;;
55603;SDS011;41468;48.838;9.330;2023-07-20T08:35:09;4.35;;;1.83;;
55603;SDS011;41468;48.838;9.330;2023-07-20T08:37:36;1.98;;;1.42;;
55603;SDS011;41468;48.838;9.330;2023-07-20T08:40:14;3.20;;;1.80;;
55603;SDS011;41468;48.838;9.330;2023-07-20T08:42:41;2.15;;;1.40;;
55603;SDS011;41468;48.838;9.330;2023-07-20T08:45:08;1.70;;;1.60;;
55603;SDS011;41468;48.838;9.330;2023-07-20T08:47:36;3.40;;;1.50;;
55603;SDS011;41468;48.838;9.330;2023-07-20T08:50:03;4.15;;;1.70;;
55603;SDS011;41468;48.838;9.330;2023-07-20T08:52:34;3.75;;;1.60;;
55603;SDS011;41468;48.838;9.330;2023-07-20T08:55:01;2.72;;;1.80;;
55603;SDS011;41468;48.838;9.330;2023-07-20T08:57:33;2.63;;;1.73;;
55603;SDS011;41468;48.838;9.330;2023-07-20T09:00:04;1.90;;;1.70;;
55603;SDS011;41468;48.838;9.330;2023-07-20T09:02:31;1.70;;;1.60;;
55603;SDS011;41468;48.838;9.330;2023-07-20T09:05:05;1.52;;;1.42;;
55603;SDS011;41468;48.838;9.330;2023-07-20T09:07:35;2.67;;;1.50;;
55603;SDS011;41468;48.838;9.330;2023-07-20T09:10:02;2.25;;;1.67;;
55603;SDS011;41468;48.838;9.330;2023-07-20T09:12:35;1.30;;;1.30;;
55603;SDS011;41468;48.838;9.330;2023-07-20T09:15:04;1.35;;;1.25;;
55603;SDS011;41468;48.838;9.330;2023-07-20T09:17:32;2.60;;;1.73;;
55603;SDS011;41468;48.838;9.330;2023-07-20T09:20:06;1.95;;;1.70;;
55603;SDS011;41468;48.838;9.330;2023-07-20T09:22:42;1.67;;;1.55;;
55603;SDS011;41468;48.838;9.330;2023-07-20T09:27:43;3.50;;;1.60;;
55603;SDS011;41468;48.838;9.330;2023-07-20T09:30:13;3.03;;;1.50;;
55603;SDS011;41468;48.838;9.330;2023-07-20T09:32:53;3.83;;;1.63;;
55603;SDS011;41468;48.838;9.330;2023-07-20T09:35:21;3.13;;;1.50;;
55603;SDS011;41468;48.838;9.330;2023-07-20T09:37:58;6.53;;;1.60;;
55603;SDS011;41468;48.838;9.330;2023-07-20T09:40:29;1.50;;;1.40;;
55603;SDS011;41468;48.838;9.330;2023-07-20T09:42:59;4.00;;;1.60;;
55603;SDS011;41468;48.838;9.330;2023-07-20T09:45:30;2.08;;;1.60;;
55603;SDS011;41468;48.838;9.330;2023-07-20T09:48:03;1.70;;;1.50;;
55603;SDS011;41468;48.838;9.330;2023-07-20T09:50:41;1.63;;;1.50;;
55603;SDS011;41468;48.838;9.330;2023-07-20T09:53:11;3.03;;;1.67;;
55603;SDS011;41468;48.838;9.330;2023-07-20T09:55:41;4.45;;;1.60;;
55603;SDS011;41468;48.838;9.330;2023-07-20T09:58:09;1.98;;;1.60;;
55603;SDS011;41468;48.838;9.330;2023-07-20T10:00:37;6.30;;;1.05;;
55603;SDS011;41468;48.838;9.330;2023-07-20T10:03:07;1.83;;;1.50;;
55603;SDS011;41468;48.838;9.330;2023-07-20T10:05:39;2.85;;;1.50;;
55603;SDS011;41468;48.838;9.330;2023-07-20T10:08:11;2.67;;;1.60;;
55603;SDS011;41468;48.838;9.330;2023-07-20T10:10:42;2.63;;;1.40;;
55603;SDS011;41468;48.838;9.330;2023-07-20T10:13:17;1.20;;;1.20;;
55603;SDS011;41468;48.838;9.330;2023-07-20T10:15:50;1.52;;;1.35;;
55603;SDS011;41468;48.838;9.330;2023-07-20T10:20:59;3.83;;;1.40;;
55603;SDS011;41468;48.838;9.330;2023-07-20T10:23:31;1.30;;;1.20;;
55603;SDS011;41468;48.838;9.330;2023-07-20T10:25:59;1.20;;;1.10;;
55603;SDS011;41468;48.838;9.330;2023-07-20T10:28:28;1.08;;;1.08;;
55603;SDS011;41468;48.838;9.330;2023-07-20T10:30:55;1.60;;;1.50;;
55603;SDS011;41468;48.838;9.330;2023-07-20T10:33:22;3.72;;;1.35;;
55603;SDS011;41468;48.838;9.330;2023-07-20T10:35:53;1.05;;;1.02;;
55603;SDS011;41468;48.838;9.330;2023-07-20T10:38:39;3.42;;;1.38;;
55603;SDS011;41468;48.838;9.330;2023-07-20T10:41:17;2.17;;;1.35;;
55603;SDS011;41468;48.838;9.330;2023-07-20T10:43:58;5.25;;;1.45;;
55603;SDS011;41468;48.838;9.330;2023-07-20T10:46:34;1.40;;;1.30;;
55603;SDS011;41468;48.838;9.330;2023-07-20T10:49:17;4.22;;;1.38;;
55603;SDS011;41468;48.838;9.330;2023-07-20T10:51:48;2.58;;;1.38;;
55603;SDS011;41468;48.838;9.330;2023-07-20T10:56:49;1.63;;;1.13;;
55603;SDS011;41468;48.838;9.330;2023-07-20T11:01:55;1.00;;;1.00;;
55603;SDS011;41468;48.838;9.330;2023-07-20T11:04:42;2.60;;;1.13;;
55603;SDS011;41468;48.838;9.330;2023-07-20T11:07:11;1.27;;;1.17;;
55603;SDS011;41468;48.838;9.330;2023-07-20T11:09:42;1.13;;;1.10;;
55603;SDS011;41468;48.838;9.330;2023-07-20T11:12:14;3.58;;;1.10;;
55603;SDS011;41468;48.838;9.330;2023-07-20T11:14:55;1.10;;;1.00;;
55603;SDS011;41468;48.838;9.330;2023-07-20T11:17:29;1.20;;;1.20;;
55603;SDS011;41468;48.838;9.330;2023-07-20T11:19:58;1.27;;;1.20;;
55603;SDS011;41468;48.838;9.330;2023-07-20T11:22:33;1.00;;;0.95;;
55603;SDS011;41468;48.838;9.330;2023-07-20T11:25:00;1.50;;;1.40;;
55603;SDS011;41468;48.838;9.330;2023-07-20T11:27:27;1.58;;;1.10;;
55603;SDS011;41468;48.838;9.330;2023-07-20T11:29:56;1.20;;;1.10;;
55603;SDS011;41468;48.838;9.330;2023-07-20T11:32:23;1.42;;;1.15;;
55603;SDS011;41468;48.838;9.330;2023-07-20T11:34:51;2.33;;;1.20;;
55603;SDS011;41468;48.838;9.330;2023-07-20T11:37:18;1.50;;;1.40;;
55603;SDS011;41468;48.838;9.330;2023-07-20T11:39:45;1.67;;;1.27;;
55603;SDS011;41468;48.838;9.330;2023-07-20T11:42:13;2.00;;;1.30;;
55603;SDS011;41468;48.838;9.330;2023-07-20T11:45:01;2.40;;;1.13;;
55603;SDS011;41468;48.838;9.330;2023-07-20T11:47:32;1.65;;;1.15;;
55603;SDS011;41468;48.838;9.330;2023-07-20T11:50:02;1.50;;;1.40;;
55603;SDS011;41468;48.838;9.330;2023-07-20T11:52:37;1.10;;;0.90;;
55603;SDS011;41468;48.838;9.330;2023-07-20T11:55:04;1.33;;;1.23;;
55603;SDS011;41468;48.838;9.330;2023-07-20T11:57:32;1.33;;;1.17;;
55603;SDS011;41468;48.838;9.330;2023-07-20T12:00:03;1.33;;;1.23;;
55603;SDS011;41468;48.838;9.330;2023-07-20T12:02:35;3.35;;;1.30;;
55603;SDS011;41468;48.838;9.330;2023-07-20T12:05:05;1.52;;;1.33;;
55603;SDS011;41468;48.838;9.330;2023-07-20T12:07:34;1.13;;;1.00;;
55603;SDS011;41468;48.838;9.330;2023-07-20T12:10:04;0.93;;;0.93;;
55603;SDS011;41468;48.838;9.330;2023-07-20T12:12:33;0.90;;;0.90;;
55603;SDS011;41468;48.838;9.330;2023-07-20T12:15:13;1.30;;;1.17;;
55603;SDS011;41468;48.838;9.330;2023-07-20T12:17:41;3.72;;;1.08;;
55603;SDS011;41468;48.838;9.330;2023-07-20T12:20:12;0.95;;;0.95;;
55603;SDS011;41468;48.838;9.330;2023-07-20T12:22:40;1.10;;;1.00;;
55603;SDS011;41468;48.838;9.330;2023-07-20T12:25:09;4.82;;;1.00;;
55603;SDS011;41468;48.838;9.330;2023-07-20T12:27:36;0.98;;;0.98;;
55603;SDS011;41468;48.838;9.330;2023-07-20T12:30:05;1.10;;;0.88;;
55603;SDS011;41468;48.838;9.330;2023-07-20T12:32:37;1.73;;;1.10;;
55603;SDS011;41468;48.838;9.330;2023-07-20T12:35:04;1.10;;;1.10;;
55603;SDS011;41468;48.838;9.330;2023-07-20T12:37:32;1.00;;;1.00;;
55603;SDS011;41468;48.838;9.330;2023-07-20T12:39:59;1.38;;;0.80;;
55603;SDS011;41468;48.838;9.330;2023-07-20T12:42:26;1.23;;;1.13;;
55603;SDS011;41468;48.838;9.330;2023-07-20T12:44:53;1.58;;;1.48;;
55603;SDS011;41468;48.838;9.330;2023-07-20T12:47:20;1.30;;;1.20;;
55603;SDS011;41468;48.838;9.330;2023-07-20T12:49:47;1.30;;;1.20;;
55603;SDS011;41468;48.838;9.330;2023-07-20T12:52:14;1.33;;;1.15;;
55603;SDS011;41468;48.838;9.330;2023-07-20T12:54:41;2.88;;;1.40;;
55603;SDS011;41468;48.838;9.330;2023-07-20T12:57:08;1.25;;;1.15;;
55603;SDS011;41468;48.838;9.330;2023-07-20T12:59:37;0.80;;;0.80;;
55603;SDS011;41468;48.838;9.330;2023-07-20T13:02:04;1.23;;;1.15;;
55603;SDS011;41468;48.838;9.330;2023-07-20T13:04:31;4.88;;;1.20;;
55603;SDS011;41468;48.838;9.330;2023-07-20T13:06:58;3.50;;;1.27;;
55603;SDS011;41468;48.838;9.330;2023-07-20T13:09:27;1.05;;;1.05;;
55603;SDS011;41468;48.838;9.330;2023-07-20T13:11:53;2.45;;;1.15;;
55603;SDS011;41468;48.838;9.330;2023-07-20T13:14:20;2.53;;;1.17;;
55603;SDS011;41468;48.838;9.330;2023-07-20T13:16:47;1.88;;;0.93;;
55603;SDS011;41468;48.838;9.330;2023-07-20T13:19:14;3.47;;;1.10;;
55603;SDS011;41468;48.838;9.330;2023-07-20T13:21:41;1.00;;;1.00;;
55603;SDS011;41468;48.838;9.330;2023-07-20T13:24:08;1.77;;;1.30;;
55603;SDS011;41468;48.838;9.330;2023-07-20T13:26:35;1.02;;;1.00;;
55603;SDS011;41468;48.838;9.330;2023-07-20T13:29:02;0.90;;;0.90;;
55603;SDS011;41468;48.838;9.330;2023-07-20T13:31:29;3.50;;;1.30;;
55603;SDS011;41468;48.838;9.330;2023-07-20T13:34:00;1.20;;;1.10;;
55603;SDS011;41468;48.838;9.330;2023-07-20T13:36:28;2.58;;;1.10;;
55603;SDS011;41468;48.838;9.330;2023-07-20T13:38:56;2.72;;;1.20;;
55603;SDS011;41468;48.838;9.330;2023-07-20T13:41:22;1.58;;;1.10;;
55603;SDS011;41468;48.838;9.330;2023-07-20T13:43:50;1.20;;;1.20;;
55603;SDS011;41468;48.838;9.330;2023-07-20T13:46:17;1.15;;;1.05;;
55603;SDS011;41468;48.838;9.330;2023-07-20T13:49:04;1.10;;;1.10;;
55603;SDS011;41468;48.838;9.330;2023-07-20T13:51:38;4.63;;;0.90;;
55603;SDS011;41468;48.838;9.330;2023-07-20T13:54:12;1.75;;;0.90;;
55603;SDS011;41468;48.838;9.330;2023-07-20T13:56:42;1.83;;;1.10;;
55603;SDS011;41468;48.838;9.330;2023-07-20T13:59:09;1.48;;;1.13;;
55603;SDS011;41468;48.838;9.330;2023-07-20T14:01:36;1.58;;;1.48;;
55603;SDS011;41468;48.838;9.330;2023-07-20T14:04:04;1.27;;;1.00;;
55603;SDS011;41468;48.838;9.330;2023-07-20T14:06:31;0.90;;;0.90;;
55603;SDS011;41468;48.838;9.330;2023-07-20T14:08:59;1.23;;;1.13;;
55603;SDS011;41468;48.838;9.330;2023-07-20T14:11:27;1.10;;;1.00;;
55603;SDS011;41468;48.838;9.330;2023-07-20T14:13:56;3.65;;;1.17;;
55603;SDS011;41468;48.838;9.330;2023-07-20T14:16:24;0.93;;;0.93;;
55603;SDS011;41468;48.838;9.330;2023-07-20T14:18:52;1.73;;;1.38;;
55603;SDS011;41468;48.838;9.330;2023-07-20T14:21:20;1.27;;;1.20;;
55603;SDS011;41468;48.838;9.330;2023-07-20T14:23:48;2.28;;;1.40;;
55603;SDS011;41468;48.838;9.330;2023-07-20T14:26:19;2.78;;;1.17;;
55603;SDS011;41468;48.838;9.330;2023-07-20T14:28:48;2.97;;;1.15;;
55603;SDS011;41468;48.838;9.330;2023-07-20T14:31:15;1.42;;;1.30;;
55603;SDS011;41468;48.838;9.330;2023-07-20T14:33:44;1.27;;;1.17;;
55603;SDS011;41468;48.838;9.330;2023-07-20T14:36:11;1.40;;;1.30;;
55603;SDS011;41468;48.838;9.330;2023-07-20T14:38:38;1.88;;;1.27;;
55603;SDS011;41468;48.838;9.330;2023-07-20T14:41:07;1.33;;;0.95;;
55603;SDS011;41468;48.838;9.330;2023-07-20T14:43:33;1.63;;;1.17;;
55603;SDS011;41468;48.838;9.330;2023-07-20T14:46:01;1.52;;;1.10;;
55603;SDS011;41468;48.838;9.330;2023-07-20T14:48:27;1.10;;;1.08;;
55603;SDS011;41468;48.838;9.330;2023-07-20T14:50:55;3.05;;;1.20;;
55603;SDS011;41468;48.838;9.330;2023-07-20T14:53:30;1.10;;;1.10;;
55603;SDS011;41468;48.838;9.330;2023-07-20T14:56:00;1.45;;;1.00;;
55603;SDS011;41468;48.838;9.330;2023-07-20T14:58:29;0.98;;;0.98;;
55603;SDS011;41468;48.838;9.330;2023-07-20T15:00:59;5.65;;;1.20;;
55603;SDS011;41468;48.838;9.330;2023-07-20T15:03:26;1.98;;;1.13;;
55603;SDS011;41468;48.838;9.330;2023-07-20T15:05:53;2.50;;;1.20;;
55603;SDS011;41468;48.838;9.330;2023-07-20T15:08:26;2.05;;;1.30;;
55603;SDS011;41468;48.838;9.330;2023-07-20T15:10:52;1.00;;;1.00;;
55603;SDS011;41468;48.838;9.330;2023-07-20T15:13:19;1.58;;;1.10;;
55603;SDS011;41468;48.838;9.330;2023-07-20T15:15:46;1.13;;;1.02;;
55603;SDS011;41468;48.838;9.330;2023-07-20T15:18:13;2.15;;;1.20;;
55603;SDS011;41468;48.838;9.330;2023-07-20T15:20:40;0.80;;;0.80;;
55603;SDS011;41468;48.838;9.330;2023-07-20T15:23:06;1.45;;;1.35;;
55603;SDS011;41468;48.838;9.330;2023-07-20T15:25:34;4.07;;;1.13;;
55603;SDS011;41468;48.838;9.330;2023-07-20T15:28:00;1.42;;;1.20;;